Terminal Aerodrome Forecast
Issued by NWS Quad Cities IA IL

Home | Current Version | Previous Version | Text Only | Print | Product List | Glossary On
Versions: 1 2 3 4 5 6 7 8 9 10 11 12 13 14 15 16 17 18 19 20 21 22 23 24 25 26 27 28 29
000
FTUS43 KDVN 301500 AAE
TAFDBQ
TAF AMD
KDBQ 301531Z 3016/3112 27011KT P6SM OVC015
     FM301800 28009KT P6SM BKN025
     FM302100 26009KT P6SM SCT030
     FM310300 VRB03KT 5SM BR SKC
     FM310900 VRB02KT 1 1/2SM BR SCT250=

USA.gov is the U.S. government's official web portal to all federal, state and local government web resources and services.